Time;durP1;ratioP1;P1;durP2;ratioP2;P2;SDS_P1;SDS_P2;PMS_P1;PMS_P2;Temp;Humidity;BMP_temperature;BMP_pressure;BME280_temperature;BME280_humidity;BME280_pressure;Samples;Min_cycle;Max_cycle;Signal;HPM_P1;HPM_P2
2022/01/10 00:02:24;;;;;;;;;;;19.80;54.80;;;;;;5041809;28;42991;-73
2022/01/10 00:04:50;;;;;;;;;;;19.80;54.80;;;;;;5041927;28;42974;-71
2022/01/10 00:07:16;;;;;;;;;;;19.80;54.80;;;;;;5040951;28;43533;-71
2022/01/10 00:09:42;;;;;;;;;;;19.80;54.80;;;;;;5025946;28;43104;-76
2022/01/10 00:12:07;;;;;;;;;;;19.80;54.90;;;;;;5004351;28;44215;-73
2022/01/10 00:14:33;;;;;;;;;;;19.80;54.80;;;;;;5038630;28;42881;-74
2022/01/10 00:16:58;;;;;;;;;;;19.80;54.80;;;;;;5044409;28;42960;-74
2022/01/10 00:19:24;;;;;;;;;;;19.80;54.80;;;;;;5045687;28;42873;-72
2022/01/10 00:21:50;;;;;;;;;;;19.80;55.00;;;;;;5044683;28;43019;-79
2022/01/10 00:24:15;;;;;;;;;;;19.70;55.00;;;;;;5043710;28;44635;-73
2022/01/10 00:26:41;;;;;;;;;;;19.70;55.00;;;;;;5044709;28;43325;-74
2022/01/10 00:29:06;;;;;;;;;;;19.70;55.00;;;;;;5046153;28;43180;-73
2022/01/10 00:31:32;;;;;;;;;;;19.70;55.10;;;;;;5045751;28;43154;-71
2022/01/10 00:33:57;;;;;;;;;;;19.70;55.10;;;;;;5044351;28;43314;-70
2022/01/10 00:36:25;;;;;;;;;;;19.80;55.30;;;;;;5045508;28;42903;-73
2022/01/10 00:38:50;;;;;;;;;;;19.70;55.20;;;;;;5044121;28;43051;-73
2022/01/10 00:41:16;;;;;;;;;;;19.80;55.40;;;;;;5042426;28;43004;-68
2022/01/10 00:43:45;;;;;;;;;;;19.70;55.50;;;;;;5052203;28;42834;-76
2022/01/10 00:46:11;;;;;;;;;;;19.70;55.50;;;;;;5044730;28;43079;-80
2022/01/10 00:48:37;;;;;;;;;;;19.70;55.80;;;;;;5044085;28;42961;-81
2022/01/10 00:51:02;;;;;;;;;;;19.70;55.90;;;;;;5039488;28;43035;-74
2022/01/10 00:53:28;;;;;;;;;;;19.70;56.10;;;;;;5043708;28;42967;-78
2022/01/10 00:55:54;;;;;;;;;;;19.70;56.30;;;;;;5044889;28;42898;-80
2022/01/10 00:58:19;;;;;;;;;;;19.70;56.50;;;;;;5044365;28;44575;-80
2022/01/10 01:00:45;;;;;;;;;;;19.70;56.60;;;;;;5045117;28;43483;-80
2022/01/10 01:03:10;;;;;;;;;;;19.70;56.80;;;;;;5044711;28;43114;-73
2022/01/10 01:05:40;;;;;;;;;;;19.70;57.00;;;;;;5040084;28;43006;-71
2022/01/10 01:08:08;;;;;;;;;;;19.70;57.00;;;;;;5034063;28;42933;-82
2022/01/10 01:16:56;;;;;;;;;;;19.80;52.70;;;;;;5042754;28;43000;-76
2022/01/10 01:19:07;;;;;;;;;;;19.70;56.40;;;;;;5025172;28;42986;-69
2022/01/10 01:24:12;;;;;;;;;;;19.70;58.10;;;;;;5043733;28;43142;-80
2022/01/10 01:26:45;;;;;;;;;;;19.70;58.30;;;;;;5043020;28;43007;-78
2022/01/10 01:29:12;;;;;;;;;;;19.70;58.30;;;;;;5043470;28;43080;-73
2022/01/10 01:31:38;;;;;;;;;;;19.70;58.50;;;;;;5043632;28;44372;-69
2022/01/10 01:34:04;;;;;;;;;;;19.70;58.40;;;;;;5044008;28;42983;-69
2022/01/10 01:36:31;;;;;;;;;;;19.70;58.50;;;;;;5041796;28;43939;-82
2022/01/10 01:38:58;;;;;;;;;;;19.70;58.50;;;;;;5025272;28;42996;-81
2022/01/10 01:43:49;;;;;;;;;;;19.70;58.60;;;;;;5043966;28;43020;-80
2022/01/10 01:46:16;;;;;;;;;;;19.70;58.80;;;;;;5041836;28;43116;-79
2022/01/10 01:48:42;;;;;;;;;;;19.70;59.00;;;;;;5043563;28;43097;-76
2022/01/10 01:51:07;;;;;;;;;;;19.70;59.50;;;;;;5042498;28;43411;-75
2022/01/10 01:53:33;;;;;;;;;;;19.70;59.10;;;;;;5023818;28;43141;-79
2022/01/10 01:55:59;;;;;;;;;;;19.70;59.00;;;;;;5043816;28;43134;-79
2022/01/10 01:58:25;;;;;;;;;;;19.70;59.20;;;;;;5040675;28;43033;-81
2022/01/10 02:00:51;;;;;;;;;;;19.70;59.10;;;;;;5042813;28;43484;-71
2022/01/10 02:03:17;;;;;;;;;;;19.70;59.10;;;;;;5040290;28;44619;-75
2022/01/10 02:05:42;;;;;;;;;;;19.70;59.20;;;;;;5041624;28;42938;-72
2022/01/10 02:08:08;;;;;;;;;;;19.70;59.10;;;;;;5044281;28;43094;-82
2022/01/10 02:10:34;;;;;;;;;;;19.70;59.20;;;;;;5041759;28;43206;-82
2022/01/10 02:13:00;;;;;;;;;;;19.70;59.40;;;;;;5045220;28;43028;-73
2022/01/10 02:15:41;;;;;;;;;;;19.80;59.50;;;;;;5045204;28;43453;-77
2022/01/10 02:18:07;;;;;;;;;;;19.70;59.40;;;;;;5044737;28;43041;-75
2022/01/10 02:20:33;;;;;;;;;;;19.70;59.50;;;;;;5043127;28;43695;-74
2022/01/10 02:22:58;;;;;;;;;;;19.70;59.50;;;;;;5043198;28;42972;-76
2022/01/10 02:25:24;;;;;;;;;;;19.70;59.60;;;;;;5044570;28;42955;-79
2022/01/10 02:27:50;;;;;;;;;;;19.70;59.70;;;;;;5046400;28;43179;-79
2022/01/10 02:30:15;;;;;;;;;;;19.70;59.70;;;;;;5044445;28;43815;-82
2022/01/10 02:32:41;;;;;;;;;;;19.70;59.90;;;;;;5023767;28;43611;-79
2022/01/10 02:35:20;;;;;;;;;;;20.70;60.40;;;;;;5043185;28;43227;-81
2022/01/10 02:37:46;;;;;;;;;;;19.70;59.90;;;;;;5042194;28;43194;-75
2022/01/10 02:40:14;;;;;;;;;;;19.70;59.70;;;;;;5043970;28;42951;-81
2022/01/10 02:42:40;;;;;;;;;;;19.70;60.00;;;;;;5043542;28;42971;-80
2022/01/10 02:45:06;;;;;;;;;;;19.70;60.10;;;;;;5043764;28;42978;-78
2022/01/10 02:47:31;;;;;;;;;;;19.70;60.10;;;;;;5052876;28;42963;-76
2022/01/10 02:49:57;;;;;;;;;;;19.70;60.10;;;;;;5043435;28;42864;-76
2022/01/10 02:52:22;;;;;;;;;;;19.70;60.40;;;;;;5043556;28;42929;-76
2022/01/10 02:54:48;;;;;;;;;;;19.70;60.50;;;;;;5042384;28;43611;-78
2022/01/10 02:57:13;;;;;;;;;;;19.70;60.30;;;;;;5044502;28;42999;-79
2022/01/10 02:59:39;;;;;;;;;;;19.60;60.40;;;;;;5043397;28;44653;-71
2022/01/10 03:02:07;;;;;;;;;;;19.60;60.40;;;;;;5038070;28;43103;-73
2022/01/10 03:04:32;;;;;;;;;;;19.70;60.60;;;;;;5041613;28;43086;-71
2022/01/10 03:07:00;;;;;;;;;;;19.70;60.70;;;;;;5039793;28;59573;-69
2022/01/10 03:09:25;;;;;;;;;;;19.70;60.80;;;;;;5035633;28;43701;-69
2022/01/10 03:11:51;;;;;;;;;;;20.60;61.00;;;;;;5024278;28;43088;-74
2022/01/10 03:14:17;;;;;;;;;;;19.70;60.70;;;;;;5043155;28;43025;-77
2022/01/10 03:16:42;;;;;;;;;;;19.70;61.00;;;;;;5042171;28;42982;-78
2022/01/10 03:19:08;;;;;;;;;;;19.70;61.00;;;;;;5039608;28;43975;-82
2022/01/10 03:21:35;;;;;;;;;;;19.70;61.00;;;;;;5041723;28;43117;-80
2022/01/10 03:24:01;;;;;;;;;;;19.70;61.10;;;;;;5040240;28;43602;-75
2022/01/10 03:26:27;;;;;;;;;;;19.70;61.00;;;;;;5038398;28;43121;-70
2022/01/10 03:28:53;;;;;;;;;;;19.70;60.90;;;;;;5041641;28;43125;-71
2022/01/10 03:31:18;;;;;;;;;;;19.70;61.10;;;;;;5040977;28;43178;-69
2022/01/10 03:33:45;;;;;;;;;;;19.70;61.00;;;;;;5041222;28;44331;-69
2022/01/10 03:36:10;;;;;;;;;;;19.70;61.30;;;;;;5043648;28;43167;-77
2022/01/10 03:38:36;;;;;;;;;;;19.70;61.40;;;;;;5043234;28;42953;-76
2022/01/10 03:41:01;;;;;;;;;;;19.70;61.70;;;;;;5039909;28;43192;-79
2022/01/10 03:43:27;;;;;;;;;;;19.60;61.70;;;;;;5043091;28;43299;-74
2022/01/10 03:45:53;;;;;;;;;;;19.60;61.80;;;;;;5041351;28;43140;-71
2022/01/10 03:48:18;;;;;;;;;;;19.70;61.90;;;;;;5042669;28;43044;-75
2022/01/10 03:50:44;;;;;;;;;;;19.60;62.30;;;;;;5025822;28;42940;-75
2022/01/10 03:53:09;;;;;;;;;;;19.70;61.90;;;;;;5046080;28;43566;-77
2022/01/10 03:55:35;;;;;;;;;;;19.60;61.60;;;;;;5022995;28;43611;-80
2022/01/10 03:58:00;;;;;;;;;;;19.60;61.30;;;;;;5039655;28;43034;-81
2022/01/10 04:00:26;;;;;;;;;;;19.60;61.40;;;;;;5043939;28;42916;-81
2022/01/10 04:03:00;;;;;;;;;;;19.60;61.60;;;;;;5041642;28;43707;-75
2022/01/10 04:05:25;;;;;;;;;;;19.70;61.70;;;;;;5039268;28;43307;-76
2022/01/10 04:07:51;;;;;;;;;;;19.60;61.60;;;;;;5042316;28;42995;-74
2022/01/10 04:10:16;;;;;;;;;;;19.60;61.40;;;;;;5048766;28;43026;-75
2022/01/10 04:12:42;;;;;;;;;;;19.70;61.50;;;;;;5039719;28;43090;-75
2022/01/10 04:15:08;;;;;;;;;;;19.60;61.10;;;;;;5037356;28;43870;-73
2022/01/10 04:17:34;;;;;;;;;;;19.60;61.80;;;;;;5040842;28;43112;-74
2022/01/10 04:20:00;;;;;;;;;;;19.60;61.30;;;;;;5038580;28;43040;-72
2022/01/10 04:22:26;;;;;;;;;;;19.60;61.30;;;;;;5041652;28;42941;-71
2022/01/10 04:24:52;;;;;;;;;;;19.60;61.00;;;;;;5041372;28;43004;-70
2022/01/10 04:27:17;;;;;;;;;;;19.60;61.00;;;;;;5042939;28;43052;-76
2022/01/10 04:29:43;;;;;;;;;;;19.60;61.00;;;;;;5041273;28;43050;-71
2022/01/10 04:32:11;;;;;;;;;;;19.70;60.90;;;;;;5038377;28;43225;-73
2022/01/10 04:34:37;;;;;;;;;;;19.60;60.80;;;;;;5042478;28;42947;-74
2022/01/10 04:37:03;;;;;;;;;;;19.60;60.80;;;;;;5038061;28;43084;-72
2022/01/10 04:39:28;;;;;;;;;;;19.60;60.80;;;;;;5041560;28;43134;-73
2022/01/10 04:41:54;;;;;;;;;;;19.60;60.80;;;;;;5039080;28;43951;-74
2022/01/10 04:44:20;;;;;;;;;;;19.60;60.70;;;;;;5041794;28;43039;-78
2022/01/10 04:46:47;;;;;;;;;;;19.60;60.90;;;;;;5040492;28;42892;-70
2022/01/10 04:49:21;;;;;;;;;;;19.60;60.60;;;;;;5040617;28;43006;-71
2022/01/10 04:51:47;;;;;;;;;;;19.60;60.80;;;;;;5039814;28;42949;-69
2022/01/10 04:54:13;;;;;;;;;;;19.60;60.70;;;;;;5040366;28;43010;-70
2022/01/10 04:56:38;;;;;;;;;;;19.60;60.80;;;;;;5041631;28;43083;-69
2022/01/10 04:59:04;;;;;;;;;;;19.60;60.60;;;;;;5041206;28;43436;-72
2022/01/10 05:01:29;;;;;;;;;;;19.60;60.80;;;;;;5040203;28;43028;-77
2022/01/10 05:03:55;;;;;;;;;;;19.60;60.90;;;;;;5043118;28;43218;-77
2022/01/10 05:06:20;;;;;;;;;;;19.60;61.00;;;;;;5043774;28;43994;-75
2022/01/10 05:08:46;;;;;;;;;;;19.60;60.90;;;;;;5044937;28;43073;-79
2022/01/10 05:11:11;;;;;;;;;;;19.60;60.70;;;;;;5025294;28;45009;-74
2022/01/10 05:13:37;;;;;;;;;;;19.60;60.80;;;;;;5044368;28;43055;-73
2022/01/10 05:16:03;;;;;;;;;;;19.60;61.00;;;;;;5039645;28;43266;-68
2022/01/10 05:18:31;;;;;;;;;;;19.60;61.10;;;;;;5041878;28;43502;-73
2022/01/10 05:20:56;;;;;;;;;;;19.60;61.00;;;;;;5037945;28;43111;-74
2022/01/10 05:23:22;;;;;;;;;;;19.60;61.10;;;;;;5042241;28;44642;-74
2022/01/10 05:25:47;;;;;;;;;;;19.60;61.00;;;;;;5042698;28;44406;-72
2022/01/10 05:28:14;;;;;;;;;;;19.50;61.30;;;;;;5040935;28;43745;-72
2022/01/10 05:30:40;;;;;;;;;;;19.60;61.50;;;;;;5040764;28;43656;-73
2022/01/10 05:33:07;;;;;;;;;;;19.60;61.40;;;;;;5041725;28;43274;-70
2022/01/10 05:35:33;;;;;;;;;;;19.50;61.30;;;;;;5043146;28;43820;-69
2022/01/10 05:37:59;;;;;;;;;;;19.60;61.30;;;;;;5039417;28;42991;-70
2022/01/10 05:40:24;;;;;;;;;;;19.50;61.30;;;;;;5038963;28;43224;-70
2022/01/10 05:42:50;;;;;;;;;;;19.50;61.20;;;;;;5039715;28;42869;-71
2022/01/10 05:45:16;;;;;;;;;;;19.50;61.30;;;;;;5038094;28;43463;-75
2022/01/10 05:47:43;;;;;;;;;;;19.60;61.20;;;;;;5040895;28;43025;-71
2022/01/10 05:50:11;;;;;;;;;;;19.50;61.20;;;;;;5039625;28;43503;-73
2022/01/10 05:52:36;;;;;;;;;;;19.50;61.30;;;;;;5036519;28;43230;-70
2022/01/10 05:55:03;;;;;;;;;;;19.60;61.50;;;;;;5039020;28;43505;-72
2022/01/10 05:57:28;;;;;;;;;;;19.60;61.40;;;;;;5029693;28;43004;-74
2022/01/10 05:59:54;;;;;;;;;;;19.50;61.30;;;;;;5034873;28;42995;-73
2022/01/10 06:02:19;;;;;;;;;;;19.50;61.80;;;;;;5043839;28;43253;-72
2022/01/10 06:04:45;;;;;;;;;;;19.50;60.10;;;;;;5043694;28;43204;-71
2022/01/10 06:07:12;;;;;;;;;;;19.50;60.30;;;;;;5043846;28;42890;-72
2022/01/10 06:09:38;;;;;;;;;;;19.50;60.60;;;;;;5043341;28;42971;-74
2022/01/10 06:12:03;;;;;;;;;;;19.50;58.90;;;;;;5042786;28;42961;-69
2022/01/10 06:14:29;;;;;;;;;;;19.50;56.00;;;;;;5043336;28;43080;-71
2022/01/10 06:16:54;;;;;;;;;;;19.50;53.40;;;;;;5043634;28;43128;-70
2022/01/10 06:19:20;;;;;;;;;;;19.50;54.00;;;;;;5044065;28;43890;-74
2022/01/10 06:21:45;;;;;;;;;;;19.50;56.60;;;;;;5023898;28;43368;-70
2022/01/10 06:24:11;;;;;;;;;;;19.50;56.70;;;;;;5025264;28;43735;-70
2022/01/10 06:26:36;;;;;;;;;;;19.50;57.20;;;;;;5041956;28;43186;-71
2022/01/10 06:29:02;;;;;;;;;;;19.50;60.00;;;;;;5043999;28;43290;-69
2022/01/10 06:31:29;;;;;;;;;;;19.50;59.30;;;;;;5043960;28;43066;-73
2022/01/10 06:33:54;;;;;;;;;;;19.50;59.10;;;;;;5044631;28;43710;-73
2022/01/10 06:36:20;;;;;;;;;;;19.50;58.70;;;;;;5043981;28;42959;-76
2022/01/10 06:38:45;;;;;;;;;;;19.50;58.60;;;;;;5045465;28;43540;-72
2022/01/10 06:41:11;;;;;;;;;;;19.50;61.20;;;;;;5044097;28;42843;-71
2022/01/10 06:43:37;;;;;;;;;;;19.50;61.30;;;;;;5042949;28;42974;-72
2022/01/10 06:46:03;;;;;;;;;;;19.50;61.40;;;;;;5042825;28;42935;-69
2022/01/10 06:48:29;;;;;;;;;;;19.50;61.30;;;;;;5025840;28;45201;-72
2022/01/10 06:50:55;;;;;;;;;;;19.50;61.40;;;;;;5045188;28;42960;-72
2022/01/10 06:53:21;;;;;;;;;;;19.50;61.50;;;;;;5046444;28;43320;-71
2022/01/10 06:55:47;;;;;;;;;;;19.50;61.50;;;;;;5028956;28;43083;-72
2022/01/10 06:58:13;;;;;;;;;;;19.50;61.40;;;;;;5047593;28;42962;-71
2022/01/10 07:00:39;;;;;;;;;;;19.50;61.60;;;;;;5044686;28;42972;-76
2022/01/10 07:03:04;;;;;;;;;;;19.50;61.60;;;;;;5045218;28;43793;-75
2022/01/10 07:05:30;;;;;;;;;;;19.50;61.70;;;;;;5044916;28;42826;-73
2022/01/10 07:07:55;;;;;;;;;;;19.50;61.50;;;;;;5045388;28;42942;-73
2022/01/10 07:10:21;;;;;;;;;;;19.50;61.70;;;;;;5045424;28;42872;-74
2022/01/10 07:12:46;;;;;;;;;;;19.60;61.70;;;;;;5045152;28;42909;-78
2022/01/10 07:15:12;;;;;;;;;;;19.50;60.20;;;;;;5045220;28;42857;-74
2022/01/10 07:17:38;;;;;;;;;;;19.50;61.80;;;;;;5043284;28;43110;-75
2022/01/10 07:20:04;;;;;;;;;;;19.60;62.00;;;;;;5044824;28;42908;-78
2022/01/10 07:22:29;;;;;;;;;;;19.50;61.90;;;;;;5044746;28;44081;-73
2022/01/10 07:24:55;;;;;;;;;;;19.50;61.80;;;;;;5044093;28;43025;-72
2022/01/10 07:27:21;;;;;;;;;;;19.50;61.80;;;;;;5044372;28;43547;-73
2022/01/10 07:29:49;;;;;;;;;;;19.60;61.80;;;;;;5044601;28;42892;-71
2022/01/10 07:32:15;;;;;;;;;;;19.60;62.10;;;;;;5044344;28;42920;-82
2022/01/10 07:34:40;;;;;;;;;;;19.60;62.20;;;;;;5044087;28;43582;-76
2022/01/10 07:37:06;;;;;;;;;;;19.50;61.80;;;;;;5043184;28;43443;-76
2022/01/10 07:39:31;;;;;;;;;;;19.60;61.50;;;;;;5044756;28;43307;-73
2022/01/10 07:41:57;;;;;;;;;;;19.60;62.30;;;;;;5044619;28;42982;-76
2022/01/10 07:44:22;;;;;;;;;;;19.60;62.40;;;;;;5043989;28;42983;-76
2022/01/10 07:46:48;;;;;;;;;;;19.60;62.30;;;;;;5044126;28;43561;-80
2022/01/10 07:49:13;;;;;;;;;;;19.60;62.20;;;;;;5026842;28;43106;-80
2022/01/10 07:51:39;;;;;;;;;;;19.60;61.40;;;;;;5044853;28;43603;-80
2022/01/10 07:54:04;;;;;;;;;;;19.60;62.10;;;;;;5042921;28;43270;-79
2022/01/10 07:56:30;;;;;;;;;;;19.60;62.30;;;;;;5044475;28;43613;-79
2022/01/10 07:58:56;;;;;;;;;;;19.50;62.40;;;;;;5044327;28;42962;-74
2022/01/10 08:01:22;;;;;;;;;;;19.60;62.00;;;;;;5043497;28;42940;-79
2022/01/10 08:03:50;;;;;;;;;;;19.60;61.60;;;;;;5044066;28;43685;-81
2022/01/10 08:06:16;;;;;;;;;;;19.60;62.30;;;;;;5043625;28;43336;-80
2022/01/10 08:08:42;;;;;;;;;;;19.60;62.60;;;;;;5024442;28;42896;-76
2022/01/10 08:11:07;;;;;;;;;;;19.60;54.50;;;;;;5037692;28;42895;-76
2022/01/10 08:13:33;;;;;;;;;;;19.50;56.60;;;;;;5043410;28;43103;-77
2022/01/10 08:15:58;;;;;;;;;;;19.50;59.40;;;;;;5043286;28;43550;-81
2022/01/10 08:18:24;;;;;;;;;;;19.50;53.20;;;;;;5042689;28;43125;-78
2022/01/10 08:20:49;;;;;;;;;;;19.10;46.00;;;;;;5025681;28;44655;-81
2022/01/10 08:23:15;;;;;;;;;;;18.70;43.00;;;;;;5043707;28;42922;-81
2022/01/10 08:25:41;;;;;;;;;;;18.50;42.50;;;;;;5042256;28;43516;-81
2022/01/10 08:28:07;;;;;;;;;;;18.30;41.30;;;;;;5040711;28;43034;-87
2022/01/10 08:30:32;;;;;;;;;;;18.30;41.10;;;;;;5043063;28;43124;-84
2022/01/10 08:32:58;;;;;;;;;;;18.20;40.50;;;;;;5043388;28;43056;-85
2022/01/10 08:35:23;;;;;;;;;;;18.20;40.70;;;;;;5043732;28;44120;-85
2022/01/10 08:37:50;;;;;;;;;;;18.20;40.10;;;;;;5043991;28;42999;-84
2022/01/10 08:40:15;;;;;;;;;;;18.10;40.00;;;;;;5046574;28;42948;-86
2022/01/10 08:42:41;;;;;;;;;;;18.10;40.00;;;;;;5045637;28;42932;-88
2022/01/10 08:45:08;;;;;;;;;;;18.10;39.70;;;;;;5046044;28;42923;-84
2022/01/10 08:47:34;;;;;;;;;;;18.00;39.60;;;;;;5024052;28;43878;-78
2022/01/10 08:49:59;;;;;;;;;;;18.00;39.60;;;;;;5047274;28;42870;-72
2022/01/10 08:52:25;;;;;;;;;;;18.00;39.70;;;;;;5046418;28;43086;-74
2022/01/10 08:54:50;;;;;;;;;;;18.00;42.10;;;;;;5037923;28;43743;-74
2022/01/10 08:57:16;;;;;;;;;;;18.30;42.50;;;;;;5021842;28;42976;-74
2022/01/10 08:59:42;;;;;;;;;;;18.40;44.50;;;;;;5038149;28;43438;-74
2022/01/10 09:02:08;;;;;;;;;;;18.50;45.00;;;;;;5039694;28;43109;-75
2022/01/10 09:04:34;;;;;;;;;;;18.60;45.10;;;;;;5037101;28;43510;-72
2022/01/10 09:07:02;;;;;;;;;;;18.70;45.40;;;;;;5030271;28;43051;-75
2022/01/10 09:09:28;;;;;;;;;;;18.70;45.20;;;;;;5037561;28;43748;-76
2022/01/10 09:11:53;;;;;;;;;;;18.80;45.30;;;;;;5036836;28;43003;-77
2022/01/10 09:14:19;;;;;;;;;;;18.80;45.40;;;;;;5044641;28;43726;-76
2022/01/10 09:16:45;;;;;;;;;;;18.90;45.40;;;;;;5045200;28;42934;-81
2022/01/10 09:19:10;;;;;;;;;;;18.90;45.50;;;;;;5035666;28;43061;-77
2022/01/10 09:21:36;;;;;;;;;;;18.90;45.60;;;;;;5043936;28;42988;-74
2022/01/10 09:24:02;;;;;;;;;;;18.90;45.60;;;;;;5045562;28;43136;-78
2022/01/10 09:26:28;;;;;;;;;;;19.00;45.60;;;;;;5031310;28;43154;-73
2022/01/10 09:28:54;;;;;;;;;;;19.00;45.60;;;;;;5044927;28;43028;-77
2022/01/10 09:31:22;;;;;;;;;;;19.10;45.80;;;;;;5045386;28;43128;-72
2022/01/10 09:33:52;;;;;;;;;;;19.00;45.80;;;;;;5045090;28;42867;-72
2022/01/10 09:36:18;;;;;;;;;;;19.10;45.90;;;;;;5045581;28;42985;-74
2022/01/10 09:38:44;;;;;;;;;;;19.10;45.90;;;;;;5041787;28;43290;-70
2022/01/10 09:41:09;;;;;;;;;;;19.10;45.90;;;;;;5040339;28;42964;-71
2022/01/10 09:43:35;;;;;;;;;;;19.10;46.00;;;;;;5045050;28;43529;-75
2022/01/10 09:46:00;;;;;;;;;;;19.10;46.00;;;;;;5045340;28;43570;-73
2022/01/10 09:48:26;;;;;;;;;;;19.10;46.00;;;;;;5043479;28;42943;-73
2022/01/10 09:50:51;;;;;;;;;;;19.10;46.10;;;;;;5030291;28;43054;-80
2022/01/10 09:53:18;;;;;;;;;;;19.10;46.00;;;;;;5042786;28;42944;-82
2022/01/10 09:55:44;;;;;;;;;;;19.10;46.10;;;;;;5033533;28;42963;-73
2022/01/10 09:58:10;;;;;;;;;;;19.20;46.10;;;;;;5029208;28;43683;-74
2022/01/10 10:00:35;;;;;;;;;;;19.20;46.10;;;;;;5038287;28;43192;-68
2022/01/10 10:03:01;;;;;;;;;;;19.20;46.20;;;;;;5045970;28;44086;-71
2022/01/10 10:05:27;;;;;;;;;;;19.20;46.10;;;;;;5031829;28;43022;-78
2022/01/10 10:07:53;;;;;;;;;;;19.20;46.20;;;;;;5051932;28;43408;-77
2022/01/10 10:10:20;;;;;;;;;;;19.20;46.20;;;;;;5044939;28;43076;-79
2022/01/10 10:12:49;;;;;;;;;;;19.20;46.30;;;;;;5044405;28;43939;-79
2022/01/10 10:15:17;;;;;;;;;;;19.20;46.30;;;;;;5036219;28;42972;-83
2022/01/10 10:17:43;;;;;;;;;;;19.20;46.40;;;;;;5044549;28;43016;-76
2022/01/10 10:20:10;;;;;;;;;;;19.20;46.30;;;;;;5035841;28;42912;-75
2022/01/10 10:22:38;;;;;;;;;;;19.20;46.30;;;;;;5043442;28;42995;-82
2022/01/10 10:25:05;;;;;;;;;;;19.20;46.30;;;;;;5036140;28;42963;-82
2022/01/10 10:27:34;;;;;;;;;;;19.20;46.30;;;;;;5042629;28;43852;-73
2022/01/10 10:30:02;;;;;;;;;;;19.20;46.30;;;;;;5044550;28;42885;-79
2022/01/10 10:32:30;;;;;;;;;;;19.20;46.50;;;;;;5044370;28;43009;-81
2022/01/10 10:34:57;;;;;;;;;;;19.20;46.50;;;;;;5043956;28;43022;-76
2022/01/10 10:37:23;;;;;;;;;;;19.30;46.60;;;;;;5039855;28;43071;-84
2022/01/10 10:39:48;;;;;;;;;;;19.20;46.50;;;;;;5034958;28;42921;-85
2022/01/10 10:42:15;;;;;;;;;;;19.30;46.60;;;;;;5043661;28;43606;-83
2022/01/10 10:44:42;;;;;;;;;;;19.20;46.70;;;;;;5037613;28;43092;-69
2022/01/10 10:47:09;;;;;;;;;;;19.20;46.70;;;;;;5042084;28;43430;-80
2022/01/10 10:49:38;;;;;;;;;;;19.20;46.80;;;;;;5036872;28;43081;-77
2022/01/10 10:52:05;;;;;;;;;;;19.30;46.80;;;;;;5015528;28;42866;-71
2022/01/10 10:54:32;;;;;;;;;;;19.20;46.70;;;;;;5042352;28;42937;-76
2022/01/10 10:57:02;;;;;;;;;;;19.20;46.80;;;;;;5036543;28;42980;-73
2022/01/10 10:59:34;;;;;;;;;;;19.20;46.90;;;;;;5029963;28;43083;-71
2022/01/10 11:02:02;;;;;;;;;;;19.20;47.00;;;;;;5013871;28;44538;-77
2022/01/10 11:04:29;;;;;;;;;;;19.20;46.90;;;;;;5044254;28;42960;-72
2022/01/10 11:06:55;;;;;;;;;;;19.30;47.10;;;;;;5044174;28;42932;-72
2022/01/10 11:09:20;;;;;;;;;;;19.30;47.00;;;;;;5036602;28;42984;-75
2022/01/10 11:11:47;;;;;;;;;;;19.20;47.10;;;;;;5043987;28;43627;-82
2022/01/10 11:14:14;;;;;;;;;;;19.30;47.20;;;;;;5035096;28;42927;-82
2022/01/10 11:16:41;;;;;;;;;;;19.30;47.20;;;;;;5032960;28;43593;-69
2022/01/10 11:19:12;;;;;;;;;;;19.30;47.20;;;;;;5027737;28;43013;-74
2022/01/10 11:21:40;;;;;;;;;;;19.30;47.20;;;;;;5042982;28;43698;-73
2022/01/10 11:24:05;;;;;;;;;;;19.30;47.20;;;;;;5039868;28;42909;-77
2022/01/10 11:26:40;;;;;;;;;;;19.30;47.20;;;;;;5044500;28;42971;-79
2022/01/10 11:29:09;;;;;;;;;;;19.30;47.20;;;;;;5030406;28;43260;-76
2022/01/10 11:31:36;;;;;;;;;;;19.30;47.20;;;;;;5039418;28;42966;-79
2022/01/10 11:34:02;;;;;;;;;;;19.30;47.20;;;;;;5037473;28;42991;-72
2022/01/10 11:36:29;;;;;;;;;;;19.30;47.20;;;;;;5041575;28;44362;-83
2022/01/10 11:38:55;;;;;;;;;;;19.30;48.30;;;;;;5044123;28;42865;-78
2022/01/10 11:41:23;;;;;;;;;;;19.30;47.60;;;;;;5031854;28;44416;-79
2022/01/10 11:43:51;;;;;;;;;;;19.40;47.50;;;;;;5034995;28;43215;-82
2022/01/10 11:46:22;;;;;;;;;;;19.30;47.40;;;;;;5043006;28;43525;-84
2022/01/10 11:48:48;;;;;;;;;;;19.40;47.80;;;;;;5043207;28;43022;-83
2022/01/10 11:51:15;;;;;;;;;;;19.40;47.60;;;;;;5043596;28;44369;-86
2022/01/10 11:53:41;;;;;;;;;;;19.40;47.50;;;;;;5043801;28;43031;-74
2022/01/10 11:56:19;;;;;;;;;;;19.40;48.10;;;;;;5043739;28;43367;-86
2022/01/10 11:59:11;;;;;;;;;;;19.40;48.10;;;;;;5042815;28;42893;-82
2022/01/10 12:01:41;;;;;;;;;;;19.40;48.20;;;;;;5039826;28;42940;-85
2022/01/10 12:04:06;;;;;;;;;;;19.40;48.00;;;;;;5044678;28;43086;-80
2022/01/10 12:06:32;;;;;;;;;;;19.40;48.40;;;;;;5044179;28;43553;-83
2022/01/10 12:08:58;;;;;;;;;;;19.40;47.80;;;;;;5043731;28;43013;-79
2022/01/10 12:11:25;;;;;;;;;;;19.40;48.20;;;;;;5045200;28;43565;-84
2022/01/10 12:13:55;;;;;;;;;;;19.40;48.30;;;;;;5045304;28;43285;-80
2022/01/10 12:16:20;;;;;;;;;;;19.40;41.30;;;;;;5024219;28;45431;-77
2022/01/10 12:18:47;;;;;;;;;;;19.10;33.10;;;;;;5047608;28;42857;-77
2022/01/10 12:21:13;;;;;;;;;;;18.80;32.40;;;;;;5047721;28;42896;-75
2022/01/10 12:23:39;;;;;;;;;;;18.70;31.90;;;;;;5046094;28;42925;-78
2022/01/10 12:26:05;;;;;;;;;;;18.50;31.60;;;;;;5047461;28;42998;-80
2022/01/10 12:28:30;;;;;;;;;;;18.50;31.40;;;;;;5029332;28;43055;-78
2022/01/10 12:31:02;;;;;;;;;;;18.50;31.10;;;;;;5047062;28;43375;-77
2022/01/10 12:33:27;;;;;;;;;;;18.40;30.80;;;;;;5047099;28;43003;-79
2022/01/10 12:35:53;;;;;;;;;;;18.30;31.00;;;;;;5029050;28;43016;-77
2022/01/10 12:38:19;;;;;;;;;;;18.20;31.30;;;;;;5047570;28;42929;-79
2022/01/10 12:40:45;;;;;;;;;;;18.10;31.30;;;;;;5046607;28;43475;-81
2022/01/10 12:43:10;;;;;;;;;;;18.10;30.70;;;;;;5029219;28;42875;-79
2022/01/10 12:45:37;;;;;;;;;;;18.10;30.70;;;;;;5047232;28;42907;-77
2022/01/10 12:48:03;;;;;;;;;;;18.10;31.10;;;;;;5046648;28;42902;-78
2022/01/10 12:50:28;;;;;;;;;;;18.00;31.10;;;;;;5045985;28;44614;-73
2022/01/10 12:52:54;;;;;;;;;;;18.00;30.90;;;;;;5046343;28;42999;-76
2022/01/10 12:55:20;;;;;;;;;;;18.00;30.60;;;;;;5028300;28;44029;-75
2022/01/10 12:57:52;;;;;;;;;;;17.90;30.70;;;;;;5044380;28;43090;-75
2022/01/10 13:00:19;;;;;;;;;;;17.80;30.80;;;;;;5045820;28;43878;-77
2022/01/10 13:02:44;;;;;;;;;;;15.30;30.00;;;;;;5046074;28;43058;-76
2022/01/10 13:05:11;;;;;;;;;;;17.80;30.50;;;;;;5046152;28;43003;-78
2022/01/10 13:07:38;;;;;;;;;;;17.70;30.30;;;;;;5047076;28;42987;-77
2022/01/10 13:10:07;;;;;;;;;;;17.70;30.10;;;;;;5046057;28;42959;-78
2022/01/10 13:12:35;;;;;;;;;;;17.70;29.70;;;;;;5049020;28;43286;-72
2022/01/10 13:15:11;;;;;;;;;;;17.70;29.40;;;;;;5059945;28;42924;-77
2022/01/10 13:17:37;;;;;;;;;;;17.80;29.20;;;;;;5047681;28;43018;-76
2022/01/10 13:20:08;;;;;;;;;;;17.70;29.30;;;;;;5048325;28;43484;-78
2022/01/10 13:22:42;;;;;;;;;;;17.60;28.60;;;;;;5033197;28;44993;-75
2022/01/10 13:25:12;;;;;;;;;;;17.70;29.30;;;;;;5045284;28;42971;-77
2022/01/10 13:27:38;;;;;;;;;;;17.80;30.00;;;;;;5028007;28;43007;-75
2022/01/10 13:30:25;;;;;;;;;;;17.90;30.60;;;;;;5045420;28;43679;-76
2022/01/10 13:33:09;;;;;;;;;;;18.00;31.40;;;;;;5044517;28;43283;-76
2022/01/10 13:35:39;;;;;;;;;;;18.10;32.10;;;;;;5043310;28;43507;-76
2022/01/10 13:38:12;;;;;;;;;;;18.20;32.80;;;;;;5044502;28;43007;-75
2022/01/10 13:40:38;;;;;;;;;;;18.20;33.30;;;;;;5043196;28;43632;-75
2022/01/10 13:43:06;;;;;;;;;;;18.30;33.80;;;;;;5044787;28;43319;-74
2022/01/10 13:45:41;;;;;;;;;;;18.30;34.20;;;;;;5026394;28;43835;-76
2022/01/10 13:48:37;;;;;;;;;;;18.40;34.50;;;;;;5044955;28;42900;-77
2022/01/10 13:51:03;;;;;;;;;;;18.40;34.90;;;;;;5042587;28;42998;-75
2022/01/10 13:53:32;;;;;;;;;;;18.40;35.20;;;;;;5045647;28;43113;-75
2022/01/10 13:56:05;;;;;;;;;;;18.40;35.50;;;;;;5044422;28;43510;-78
2022/01/10 13:58:32;;;;;;;;;;;18.50;36.00;;;;;;5044979;28;43107;-75
2022/01/10 14:01:01;;;;;;;;;;;18.50;36.20;;;;;;5044300;28;43063;-80
2022/01/10 14:03:28;;;;;;;;;;;18.50;36.50;;;;;;5038370;28;43072;-70
2022/01/10 14:06:06;;;;;;;;;;;18.50;36.50;;;;;;5033383;28;43546;-71
2022/01/10 14:08:32;;;;;;;;;;;18.50;36.70;;;;;;5034533;28;43315;-72
2022/01/10 14:10:58;;;;;;;;;;;18.60;37.10;;;;;;5041847;28;42956;-73
2022/01/10 14:13:24;;;;;;;;;;;18.50;37.20;;;;;;5045372;28;43020;-75
2022/01/10 14:15:50;;;;;;;;;;;18.60;37.60;;;;;;5045270;28;44008;-73
2022/01/10 14:18:15;;;;;;;;;;;18.60;37.80;;;;;;5035433;28;43553;-84
2022/01/10 14:20:41;;;;;;;;;;;18.60;38.10;;;;;;5039564;28;43753;-86
2022/01/10 14:23:06;;;;;;;;;;;18.60;38.30;;;;;;5045743;28;43061;-80
2022/01/10 14:25:32;;;;;;;;;;;18.60;38.50;;;;;;5044705;28;42971;-79